Time;durP1;ratioP1;P1;durP2;ratioP2;P2;SDS_P1;SDS_P2;PMS_P1;PMS_P2;Temp;Humidity;BMP_temperature;BMP_pressure;BME280_temperature;BME280_humidity;BME280_pressure;Samples;Min_cycle;Max_cycle;Signal;HPM_P1;HPM_P2
2023/04/17 00:02:03;;;;;;;3.55;3.20;;;;;;;4.50;76.21;100376.56;1621323;86;21479;-58
2023/04/17 00:04:30;;;;;;;3.20;2.90;;;;;;;4.44;76.42;100376.20;1623362;86;21677;-58
2023/04/17 00:06:58;;;;;;;3.45;2.77;;;;;;;4.43;77.04;100374.94;1623500;86;21030;-57
2023/04/17 00:09:25;;;;;;;3.12;2.83;;;;;;;4.54;77.62;100374.38;1625015;86;21091;-58
2023/04/17 00:11:51;;;;;;;3.52;2.90;;;;;;;4.73;77.92;100371.09;1619945;86;21017;-58
2023/04/17 00:14:17;;;;;;;3.52;3.15;;;;;;;4.95;78.04;100376.84;1621645;86;21504;-58
2023/04/17 00:16:43;;;;;;;3.87;2.95;;;;;;;5.13;77.94;100386.11;1614135;87;21019;-58
2023/04/17 00:19:10;;;;;;;3.15;2.70;;;;;;;5.28;77.90;100379.84;1613167;85;21044;-58
2023/04/17 00:21:36;;;;;;;3.10;2.80;;;;;;;5.43;77.91;100373.56;1618043;87;21102;-58
2023/04/17 00:24:02;;;;;;;2.87;2.40;;;;;;;5.53;77.92;100385.05;1611889;87;21015;-59
2023/04/17 00:26:28;;;;;;;3.25;2.75;;;;;;;5.68;78.04;100385.67;1613861;87;20963;-58
2023/04/17 00:28:55;;;;;;;3.70;3.37;;;;;;;5.81;77.91;100388.48;1619224;87;21425;-57
2023/04/17 00:31:21;;;;;;;4.40;3.00;;;;;;;5.93;77.98;100393.47;1624277;87;21071;-58
2023/04/17 00:33:47;;;;;;;3.08;2.77;;;;;;;6.05;78.04;100384.65;1614400;87;21059;-58
2023/04/17 00:36:14;;;;;;;3.47;3.17;;;;;;;6.15;78.00;100384.02;1617260;87;20945;-58
2023/04/17 00:38:40;;;;;;;3.20;2.90;;;;;;;6.18;77.49;100387.41;1615507;87;20969;-58
2023/04/17 00:41:06;;;;;;;5.80;3.05;;;;;;;6.19;77.79;100386.96;1614614;87;21035;-58
2023/04/17 00:43:33;;;;;;;3.42;3.12;;;;;;;6.24;77.91;100389.03;1616175;87;21028;-58
2023/04/17 00:45:59;;;;;;;3.45;3.15;;;;;;;6.32;77.93;100392.78;1615895;87;21074;-58
2023/04/17 00:48:26;;;;;;;3.80;3.40;;;;;;;6.35;77.95;100388.38;1615863;87;21525;-58
2023/04/17 00:50:54;;;;;;;3.85;3.17;;;;;;;6.40;77.88;100389.16;1613481;87;21455;-59
2023/04/17 00:53:20;;;;;;;4.05;3.67;;;;;;;6.44;78.00;100392.13;1612276;87;20987;-58
2023/04/17 00:55:48;;;;;;;3.33;3.02;;;;;;;6.49;78.06;100388.96;1613706;87;21069;-58
2023/04/17 00:58:15;;;;;;;3.47;3.02;;;;;;;6.54;77.92;100390.63;1611762;87;21019;-58
2023/04/17 01:00:41;;;;;;;3.60;3.30;;;;;;;6.58;78.07;100397.45;1615142;87;21613;-58
2023/04/17 01:03:07;;;;;;;3.50;3.10;;;;;;;6.61;77.96;100390.91;1610547;87;21474;-58
2023/04/17 01:05:37;;;;;;;3.15;2.90;;;;;;;6.65;78.01;100393.86;1610328;87;21015;-58
2023/04/17 01:08:04;;;;;;;3.40;3.10;;;;;;;6.67;77.87;100388.20;1612065;87;21042;-58
2023/04/17 01:10:30;;;;;;;3.75;3.45;;;;;;;6.68;77.95;100389.91;1615806;87;21087;-58
2023/04/17 01:13:05;;;;;;;5.83;3.70;;;;;;;6.70;77.88;100392.03;1615323;87;21058;-58
2023/04/17 01:15:31;;;;;;;4.37;3.65;;;;;;;6.67;77.75;100386.91;1609130;87;21009;-58
2023/04/17 01:17:58;;;;;;;3.95;3.55;;;;;;;6.64;77.74;100385.23;1610624;87;20952;-58
2023/04/17 01:20:29;;;;;;;7.20;3.93;;;;;;;6.64;77.86;100392.16;1607323;87;20965;-58
2023/04/17 01:22:53;;;;;;;3.50;3.20;;;;;;;6.65;77.88;100389.97;1606178;87;21050;-58
2023/04/17 01:25:20;;;;;;;4.33;3.85;;;;;;;6.66;77.74;100396.41;1613287;87;21051;-58
2023/04/17 01:27:46;;;;;;;4.10;3.70;;;;;;;6.57;77.80;100390.56;1610221;87;21017;-58
2023/04/17 01:30:13;;;;;;;3.50;3.20;;;;;;;6.52;77.57;100396.28;1609207;87;21292;-58
2023/04/17 01:32:40;;;;;;;3.40;2.90;;;;;;;6.40;77.26;100400.83;1609477;87;21045;-58
2023/04/17 01:35:07;;;;;;;3.50;3.20;;;;;;;6.13;76.90;100393.11;1606965;87;21018;-58
2023/04/17 01:37:33;;;;;;;3.90;3.10;;;;;;;5.95;77.54;100399.49;1610714;87;21080;-58
2023/04/17 01:40:00;;;;;;;3.40;3.10;;;;;;;5.90;77.80;100398.69;1618397;87;21067;-58
2023/04/17 01:42:26;;;;;;;4.12;3.22;;;;;;;5.93;78.06;100402.55;1612571;87;21095;-58
2023/04/17 01:44:53;;;;;;;4.05;3.45;;;;;;;5.95;78.46;100400.80;1610467;87;21004;-58
2023/04/17 01:47:19;;;;;;;3.65;2.70;;;;;;;5.97;78.12;100399.03;1606182;87;21012;-58
2023/04/17 01:49:45;;;;;;;3.85;3.08;;;;;;;6.03;78.40;100404.11;1609856;87;21086;-58
2023/04/17 01:52:11;;;;;;;3.50;2.92;;;;;;;6.02;78.09;100406.30;1616185;87;21491;-58
2023/04/17 01:54:38;;;;;;;3.50;3.20;;;;;;;5.93;77.62;100408.14;1615388;86;21984;-58
2023/04/17 01:57:04;;;;;;;3.98;2.87;;;;;;;5.82;78.26;100404.44;1609786;87;21082;-58
2023/04/17 01:59:30;;;;;;;4.08;3.00;;;;;;;5.85;78.14;100413.45;1613091;87;21019;-58
2023/04/17 02:01:56;;;;;;;3.33;2.65;;;;;;;5.72;77.68;100410.67;1610014;87;21061;-57
2023/04/17 02:04:23;;;;;;;3.83;3.08;;;;;;;5.61;78.13;100407.80;1615879;87;21015;-57
2023/04/17 02:06:49;;;;;;;3.27;2.98;;;;;;;5.54;78.04;100408.77;1607326;87;20972;-58
2023/04/17 02:09:17;;;;;;;4.60;3.17;;;;;;;5.52;78.02;100402.77;1610357;87;21069;-58
2023/04/17 02:11:44;;;;;;;4.95;3.35;;;;;;;5.55;78.12;100409.20;1611302;87;21020;-58
2023/04/17 02:14:10;;;;;;;3.67;3.05;;;;;;;5.51;78.50;100416.59;1613876;87;21107;-58
2023/04/17 02:16:36;;;;;;;4.42;3.60;;;;;;;5.59;79.00;100414.73;1609969;87;21378;-58
2023/04/17 02:19:03;;;;;;;3.40;3.10;;;;;;;5.74;78.99;100415.37;1609662;87;21066;-58
2023/04/17 02:21:29;;;;;;;3.35;3.05;;;;;;;5.86;79.06;100415.18;1612174;87;21053;-58
2023/04/17 02:23:56;;;;;;;4.83;3.45;;;;;;;5.97;78.74;100418.48;1611952;87;20982;-58
2023/04/17 02:26:22;;;;;;;3.50;3.20;;;;;;;5.97;78.82;100427.55;1610667;87;21019;-57
2023/04/17 02:28:48;;;;;;;4.25;3.75;;;;;;;6.07;79.07;100423.49;1582673;89;21747;-58
2023/04/17 02:31:16;;;;;;;4.00;3.60;;;;;;;6.16;79.09;100413.83;1592172;88;21579;-58
2023/04/17 02:33:42;;;;;;;3.67;3.27;;;;;;;6.25;79.16;100415.40;1612074;87;21069;-58
2023/04/17 02:36:09;;;;;;;4.50;3.83;;;;;;;6.29;78.91;100419.63;1612833;87;21082;-58
2023/04/17 02:38:36;;;;;;;4.17;3.77;;;;;;;6.36;78.94;100416.05;1610207;87;21580;-58
2023/04/17 02:41:04;;;;;;;3.60;3.30;;;;;;;6.33;78.86;100417.41;1613255;87;20975;-58
2023/04/17 02:43:30;;;;;;;4.20;3.45;;;;;;;6.39;79.11;100423.77;1579169;88;21044;-58
2023/04/17 02:45:57;;;;;;;3.60;3.30;;;;;;;6.40;78.84;100420.28;1587211;88;21015;-59
2023/04/17 02:48:23;;;;;;;4.00;3.22;;;;;;;6.40;78.94;100417.69;1588807;88;21089;-58
2023/04/17 02:50:49;;;;;;;6.17;3.77;;;;;;;6.31;78.44;100419.17;1594041;87;21020;-58
2023/04/17 02:53:16;;;;;;;3.70;3.40;;;;;;;6.15;78.62;100429.40;1603039;87;21587;-60
2023/04/17 02:55:42;;;;;;;5.20;3.93;;;;;;;6.19;79.13;100431.04;1611023;87;21571;-58
2023/04/17 02:58:08;;;;;;;5.40;4.25;;;;;;;6.28;79.26;100430.90;1611803;87;21076;-57
2023/04/17 03:00:34;;;;;;;4.10;3.70;;;;;;;6.25;78.93;100436.14;1611877;87;21021;-58
2023/04/17 03:03:01;;;;;;;5.67;3.92;;;;;;;6.16;79.05;100438.46;1607552;87;20986;-58
2023/04/17 03:05:29;;;;;;;4.17;3.62;;;;;;;6.24;79.24;100432.67;1607495;87;21062;-58
2023/04/17 03:07:58;;;;;;;5.17;3.92;;;;;;;6.28;79.33;100436.94;1615212;87;21011;-58
2023/04/17 03:10:24;;;;;;;5.15;4.40;;;;;;;6.39;79.47;100439.34;1610288;87;21107;-57
2023/04/17 03:12:50;;;;;;;5.92;4.80;;;;;;;6.35;79.14;100435.07;1612465;87;20987;-58
2023/04/17 03:15:17;;;;;;;5.25;4.75;;;;;;;6.27;78.63;100436.95;1614758;87;21011;-58
2023/04/17 03:17:44;;;;;;;5.25;4.70;;;;;;;6.17;79.18;100440.61;1609346;87;21622;-58
2023/04/17 03:20:11;;;;;;;5.20;4.15;;;;;;;6.18;79.00;100442.31;1611211;87;21700;-58
2023/04/17 03:22:37;;;;;;;5.55;4.87;;;;;;;6.11;79.20;100438.13;1609588;87;20980;-58
2023/04/17 03:25:04;;;;;;;5.53;4.58;;;;;;;6.12;79.14;100442.42;1590958;88;21028;-58
2023/04/17 03:27:31;;;;;;;5.03;4.40;;;;;;;6.06;79.14;100445.98;1613101;87;21023;-59
2023/04/17 03:29:57;;;;;;;4.90;4.40;;;;;;;6.08;79.64;100442.92;1590504;88;20939;-58
2023/04/17 03:32:23;;;;;;;5.10;4.60;;;;;;;6.14;79.45;100439.37;1592896;88;21029;-58
2023/04/17 03:34:50;;;;;;;4.97;4.47;;;;;;;6.03;78.94;100446.87;1610960;87;21057;-58
2023/04/17 03:37:16;;;;;;;5.28;4.75;;;;;;;6.02;79.65;100449.07;1591839;88;21115;-58
2023/04/17 03:39:42;;;;;;;5.30;4.75;;;;;;;6.10;79.39;100444.18;1611380;87;21013;-58
2023/04/17 03:42:13;;;;;;;4.85;4.35;;;;;;;5.92;78.85;100456.55;1611134;87;21477;-58
2023/04/17 03:44:37;;;;;;;4.62;4.22;;;;;;;5.82;79.24;100454.97;1604533;87;20984;-58
2023/04/17 03:47:03;;;;;;;10.08;4.67;;;;;;;5.86;79.81;100456.65;1592854;88;21018;-58
2023/04/17 03:49:29;;;;;;;6.08;4.33;;;;;;;5.95;79.89;100450.48;1595480;88;21004;-58
2023/04/17 03:51:56;;;;;;;6.05;4.85;;;;;;;6.03;79.92;100458.55;1593123;88;21448;-57
2023/04/17 03:54:22;;;;;;;5.90;5.30;;;;;;;5.99;79.42;100458.20;1608536;87;21468;-58
2023/04/17 03:56:48;;;;;;;5.58;5.08;;;;;;;5.87;79.09;100458.34;1578386;89;21190;-58
2023/04/17 03:59:15;;;;;;;5.42;4.92;;;;;;;5.79;79.61;100458.91;1613295;87;20965;-58
2023/04/17 04:01:41;;;;;;;5.25;4.70;;;;;;;5.91;80.13;100469.09;1608903;87;21732;-58
2023/04/17 04:04:08;;;;;;;5.65;4.97;;;;;;;5.89;79.65;100466.97;1614569;87;21622;-58
2023/04/17 04:06:36;;;;;;;6.33;5.55;;;;;;;5.86;79.93;100472.20;1612997;87;20992;-59
2023/04/17 04:09:03;;;;;;;5.17;4.67;;;;;;;5.83;79.82;100460.59;1613607;87;21044;-58
2023/04/17 04:11:29;;;;;;;8.78;5.20;;;;;;;5.72;79.78;100469.82;1591079;88;21544;-58
2023/04/17 04:13:55;;;;;;;6.60;5.40;;;;;;;5.69;79.45;100467.73;1612801;87;21582;-58
2023/04/17 04:16:22;;;;;;;5.95;5.45;;;;;;;5.66;80.15;100471.63;1612663;87;21523;-58
2023/04/17 04:18:49;;;;;;;7.40;5.30;;;;;;;5.68;80.11;100469.44;1609117;87;21030;-58
2023/04/17 04:21:15;;;;;;;5.35;4.85;;;;;;;5.74;80.25;100474.97;1608682;87;21522;-58
2023/04/17 04:23:41;;;;;;;5.87;5.28;;;;;;;5.81;80.47;100472.26;1615923;87;21534;-58
2023/04/17 04:26:07;;;;;;;6.62;5.90;;;;;;;5.78;79.55;100476.64;1610528;87;21561;-58
2023/04/17 04:28:34;;;;;;;5.25;4.85;;;;;;;5.69;80.10;100479.39;1612873;87;21015;-58
2023/04/17 04:31:01;;;;;;;6.80;6.12;;;;;;;5.76;80.19;100478.39;1612531;87;21067;-57
2023/04/17 04:33:29;;;;;;;6.20;5.70;;;;;;;5.79;80.80;100475.75;1597081;87;21047;-58
2023/04/17 04:35:59;;;;;;;6.65;5.95;;;;;;;5.86;79.73;100476.09;1610223;87;20949;-58
2023/04/17 04:38:31;;;;;;;6.85;6.15;;;;;;;5.71;79.77;100482.78;1609795;87;21013;-58
2023/04/17 04:41:00;;;;;;;5.62;5.12;;;;;;;5.71;80.09;100478.45;1607420;87;21518;-58
2023/04/17 04:43:28;;;;;;;8.05;5.72;;;;;;;5.80;80.57;100485.27;1615026;87;21051;-58
2023/04/17 04:45:55;;;;;;;6.72;5.47;;;;;;;5.90;80.70;100479.03;1610954;87;20970;-58
2023/04/17 04:48:23;;;;;;;7.50;6.65;;;;;;;5.98;81.07;100487.58;1604542;87;22464;-58
2023/04/17 04:50:49;;;;;;;7.28;5.87;;;;;;;6.05;81.21;100491.80;1621027;87;21127;-58
2023/04/17 04:53:21;;;;;;;6.78;6.08;;;;;;;6.25;81.40;100500.98;1608701;87;20966;-58
2023/04/17 04:55:48;;;;;;;7.45;6.00;;;;;;;6.29;80.59;100492.25;1610256;87;21041;-58
2023/04/17 04:58:15;;;;;;;7.97;7.08;;;;;;;6.33;80.66;100487.44;1612595;87;21083;-58
2023/04/17 05:00:42;;;;;;;7.50;6.75;;;;;;;6.14;80.07;100497.71;1614827;87;21479;-58
2023/04/17 05:03:08;;;;;;;9.70;6.97;;;;;;;5.97;80.27;100496.24;1611033;87;21617;-58
2023/04/17 05:05:35;;;;;;;7.75;7.05;;;;;;;5.87;80.37;100497.23;1605178;87;21009;-58
2023/04/17 05:08:02;;;;;;;9.25;7.42;;;;;;;5.77;80.42;100503.42;1610875;87;21061;-58
2023/04/17 05:10:28;;;;;;;10.63;7.12;;;;;;;5.77;80.76;100506.01;1608018;87;21027;-58
2023/04/17 05:12:56;;;;;;;7.42;6.72;;;;;;;5.79;81.11;100505.55;1613047;87;20968;-58
2023/04/17 05:15:23;;;;;;;8.08;7.30;;;;;;;5.92;81.06;100504.94;1611386;87;21036;-59
2023/04/17 05:17:50;;;;;;;8.43;7.57;;;;;;;5.90;80.62;100504.95;1626659;86;21042;-60
2023/04/17 05:20:17;;;;;;;8.25;7.40;;;;;;;5.87;81.06;100505.00;1621955;86;21480;-60
2023/04/17 05:22:44;;;;;;;9.83;7.80;;;;;;;6.05;81.39;100507.34;1617101;86;21079;-59
2023/04/17 05:25:10;;;;;;;11.30;7.83;;;;;;;6.09;80.96;100512.48;1618910;86;20995;-60
2023/04/17 05:27:36;;;;;;;8.33;7.50;;;;;;;6.20;81.73;100515.75;1625119;86;20997;-59
2023/04/17 05:30:04;;;;;;;11.68;7.00;;;;;;;6.27;81.33;100513.45;1617777;86;21096;-60
2023/04/17 05:32:35;;;;;;;;;;;;;;;6.46;81.89;100516.14;1621005;86;21003;-59
2023/04/17 05:35:00;;;;;;;7.87;6.90;;;;;;;6.62;81.61;100514.59;1621382;86;20466;-59
2023/04/17 05:37:26;;;;;;;7.85;7.15;;;;;;;6.64;81.50;100519.32;1620786;86;20980;-59
2023/04/17 05:39:52;;;;;;;11.40;7.47;;;;;;;6.59;80.97;100525.03;1625457;86;21097;-60
2023/04/17 05:42:24;;;;;;;8.18;7.37;;;;;;;6.57;80.89;100522.89;1624070;86;21038;-60
2023/04/17 05:44:54;;;;;;;7.70;6.95;;;;;;;6.67;81.72;100529.64;1631152;86;21023;-60
2023/04/17 05:47:31;;;;;;;9.13;7.37;;;;;;;6.69;80.85;100522.66;1632492;86;20956;-60
2023/04/17 05:49:56;;;;;;;6.67;6.03;;;;;;;6.65;81.13;100525.77;1610108;86;21046;-60
2023/04/17 05:52:23;;;;;;;8.08;7.28;;;;;;;6.55;80.70;100529.84;1632509;86;21125;-59
2023/04/17 05:54:52;;;;;;;9.60;7.45;;;;;;;6.41;81.05;100527.48;1627496;86;21514;-60
2023/04/17 05:57:20;;;;;;;9.68;7.72;;;;;;;6.55;81.45;100528.55;1628924;86;21134;-60
2023/04/17 05:59:49;;;;;;;8.13;7.33;;;;;;;6.57;81.12;100530.68;1627308;85;21058;-59
2023/04/17 06:02:16;;;;;;;9.18;7.35;;;;;;;6.66;81.78;100540.88;1627552;86;21093;-60
2023/04/17 06:04:43;;;;;;;8.75;7.42;;;;;;;6.73;81.45;100538.61;1627434;86;21070;-59
2023/04/17 06:07:10;;;;;;;8.30;7.50;;;;;;;6.68;80.80;100541.72;1635074;86;21042;-60
2023/04/17 06:09:37;;;;;;;9.00;7.90;;;;;;;6.65;81.07;100543.08;1630580;86;21011;-59
2023/04/17 06:12:06;;;;;;;8.98;8.05;;;;;;;6.56;80.86;100544.55;1621030;86;20991;-60
2023/04/17 06:14:32;;;;;;;9.23;8.28;;;;;;;6.48;81.08;100544.23;1626143;86;21069;-60
2023/04/17 06:16:59;;;;;;;11.60;9.25;;;;;;;6.53;81.18;100549.80;1624823;85;21573;-59
2023/04/17 06:19:25;;;;;;;11.43;8.65;;;;;;;6.60;81.71;100546.19;1617272;87;20965;-59
2023/04/17 06:21:51;;;;;;;10.32;8.90;;;;;;;6.54;81.00;100551.50;1616241;87;21705;-59
2023/04/17 06:24:17;;;;;;;10.93;7.90;;;;;;;6.46;80.74;100546.42;1621069;87;22094;-61
2023/04/17 06:26:44;;;;;;;9.55;8.53;;;;;;;6.40;81.37;100552.58;1618216;87;21571;-60
2023/04/17 06:29:11;;;;;;;12.40;8.95;;;;;;;6.37;80.63;100555.23;1613575;87;21527;-60
2023/04/17 06:31:37;;;;;;;11.05;8.63;;;;;;;6.32;81.04;100559.63;1616992;87;21067;-59
2023/04/17 06:34:04;;;;;;;10.30;8.28;;;;;;;6.34;80.86;100554.43;1616228;87;21589;-61
2023/04/17 06:36:32;;;;;;;11.60;8.78;;;;;;;6.33;81.60;100552.28;1617266;87;21047;-61
2023/04/17 06:39:00;;;;;;;9.80;8.78;;;;;;;6.44;81.34;100559.45;1613862;87;21055;-60
2023/04/17 06:41:27;;;;;;;10.00;9.00;;;;;;;6.45;81.12;100554.66;1614727;87;21024;-58
2023/04/17 06:43:53;;;;;;;11.78;9.50;;;;;;;6.48;81.05;100563.68;1613765;87;21003;-60
2023/04/17 06:46:22;;;;;;;10.90;9.80;;;;;;;6.46;81.03;100570.62;1615188;87;21094;-60
2023/04/17 06:48:51;;;;;;;11.03;9.80;;;;;;;6.36;80.91;100566.50;1613786;87;21023;-60
2023/04/17 06:51:20;;;;;;;9.68;8.50;;;;;;;6.34;80.90;100557.88;1614774;87;21015;-60
2023/04/17 06:53:47;;;;;;;10.75;9.18;;;;;;;6.36;80.96;100562.61;1612520;87;20987;-60
2023/04/17 06:56:13;;;;;;;10.68;9.13;;;;;;;6.31;80.84;100563.11;1608160;87;21042;-60
2023/04/17 06:58:43;;;;;;;10.63;9.38;;;;;;;6.26;81.11;100560.59;1610607;87;22456;-60
2023/04/17 07:01:10;;;;;;;11.20;9.70;;;;;;;6.23;81.06;100572.75;1609206;87;21110;-60
2023/04/17 07:03:38;;;;;;;11.93;8.88;;;;;;;6.18;81.04;100575.85;1613473;87;21022;-60
2023/04/17 07:06:07;;;;;;;9.78;8.78;;;;;;;6.29;81.90;100572.65;1616815;87;20999;-60
2023/04/17 07:08:34;;;;;;;9.23;8.00;;;;;;;6.52;82.12;100579.20;1614356;87;21605;-60
2023/04/17 07:11:01;;;;;;;8.78;7.78;;;;;;;6.64;81.59;100589.38;1620897;87;21529;-60
2023/04/17 07:13:32;;;;;;;11.83;9.15;;;;;;;6.67;81.09;100586.73;1612788;87;21014;-61
2023/04/17 07:16:00;;;;;;;10.38;8.18;;;;;;;6.59;81.23;100587.30;1618082;87;21493;-60
2023/04/17 07:18:28;;;;;;;9.23;8.30;;;;;;;6.58;80.74;100592.06;1615172;85;21055;-60
2023/04/17 07:20:55;;;;;;;8.95;7.17;;;;;;;6.59;81.50;100588.60;1619186;87;20995;-59
2023/04/17 07:23:22;;;;;;;9.05;7.28;;;;;;;6.80;81.99;100588.20;1615779;87;21012;-60
2023/04/17 07:25:52;;;;;;;8.40;6.90;;;;;;;6.91;81.55;100594.06;1600980;87;21000;-60
2023/04/17 07:28:19;;;;;;;11.18;7.12;;;;;;;6.99;81.34;100606.06;1613349;87;21062;-59
2023/04/17 07:30:45;;;;;;;9.35;7.80;;;;;;;6.98;81.10;100610.40;1621696;87;21027;-61
2023/04/17 07:33:11;;;;;;;10.15;7.42;;;;;;;6.97;80.78;100610.41;1615758;87;21633;-61
2023/04/17 07:35:41;;;;;;;9.95;7.03;;;;;;;6.95;81.28;100613.05;1616167;87;21641;-60
2023/04/17 07:38:14;;;;;;;10.80;8.18;;;;;;;7.05;81.51;100613.73;1615078;87;21098;-59
2023/04/17 07:40:40;;;;;;;9.30;8.20;;;;;;;7.06;80.62;100618.06;1619634;87;21126;-59
2023/04/17 07:43:11;;;;;;;9.30;7.73;;;;;;;6.84;80.33;100621.03;1617864;87;21058;-59
2023/04/17 07:45:37;;;;;;;8.90;7.58;;;;;;;6.78;80.73;100631.53;1609962;87;22304;-59
2023/04/17 07:48:06;;;;;;;8.38;7.55;;;;;;;6.73;80.68;100628.14;1616914;87;21556;-59
2023/04/17 07:50:33;;;;;;;9.58;8.53;;;;;;;6.71;80.86;100627.31;1614693;85;21060;-59
2023/04/17 07:53:02;;;;;;;9.05;7.62;;;;;;;6.71;80.88;100627.31;1613563;87;21070;-59
2023/04/17 07:55:28;;;;;;;8.55;7.45;;;;;;;6.67;80.80;100628.25;1620281;87;21022;-59
2023/04/17 07:58:03;;;;;;;9.25;7.62;;;;;;;6.61;80.54;100632.23;1620468;87;21111;-61
2023/04/17 08:00:27;;;;;;;10.88;7.58;;;;;;;6.56;80.79;100637.95;1612774;87;21035;-60
2023/04/17 08:02:53;;;;;;;9.18;7.90;;;;;;;6.53;80.64;100640.60;1613648;87;21388;-59
2023/04/17 08:05:22;;;;;;;8.80;7.90;;;;;;;6.57;80.79;100647.44;1615732;87;21606;-60
2023/04/17 08:07:50;;;;;;;8.40;7.58;;;;;;;6.66;80.71;100644.69;1613739;87;21016;-59
2023/04/17 08:10:17;;;;;;;8.33;7.10;;;;;;;6.67;80.73;100641.23;1610098;87;21059;-60
2023/04/17 08:12:43;;;;;;;8.83;7.92;;;;;;;6.64;80.54;100646.48;1612489;87;21022;-60
2023/04/17 08:15:13;;;;;;;8.63;7.55;;;;;;;6.55;80.03;100651.34;1613688;87;21039;-60
2023/04/17 08:17:39;;;;;;;8.13;7.33;;;;;;;6.47;80.35;100652.78;1618283;86;21074;-60
2023/04/17 08:20:09;;;;;;;7.20;6.50;;;;;;;6.50;80.76;100655.33;1622482;86;21034;-59
2023/04/17 08:22:45;;;;;;;8.45;7.65;;;;;;;6.67;81.10;100657.66;1597088;88;21400;-59
2023/04/17 08:25:13;;;;;;;8.73;6.92;;;;;;;6.70;80.24;100665.83;1625153;86;21027;-59
2023/04/17 08:27:42;;;;;;;8.60;6.87;;;;;;;6.69;80.33;100664.09;1623929;86;21116;-59
2023/04/17 08:30:12;;;;;;;8.68;6.92;;;;;;;6.68;80.24;100668.89;1606442;86;21551;-59
2023/04/17 08:32:39;;;;;;;;;;;;;;;6.64;80.06;100668.53;1621751;86;21071;-60
2023/04/17 08:35:20;;;;;;;8.25;5.78;;;;;;;6.59;80.09;100669.89;1625391;86;20177;-60
2023/04/17 08:37:40;;;;;;;8.03;6.62;;;;;;;6.70;80.48;100676.22;1603641;87;21060;-59
2023/04/17 08:40:15;;;;;;;8.63;6.08;;;;;;;6.71;79.92;100674.87;1622774;86;21667;-59
2023/04/17 08:42:46;;;;;;;8.13;6.53;;;;;;;6.68;79.81;100680.56;1619703;86;21066;-59
2023/04/17 08:45:13;;;;;;;8.05;6.53;;;;;;;6.52;79.52;100687.72;1617982;86;21074;-60
2023/04/17 08:47:43;;;;;;;9.65;6.53;;;;;;;6.46;79.76;100686.08;1625366;86;21108;-59
2023/04/17 08:50:15;;;;;;;7.62;6.45;;;;;;;6.54;80.14;100687.71;1590884;88;21087;-59
2023/04/17 08:52:44;;;;;;;7.28;5.70;;;;;;;6.55;79.88;100693.31;1624976;86;20940;-60
2023/04/17 08:55:21;;;;;;;6.85;5.92;;;;;;;6.55;79.55;100690.71;1622444;86;21050;-60
2023/04/17 08:58:08;;;;;;;8.25;6.78;;;;;;;6.52;79.65;100693.36;1587576;88;21583;-60
2023/04/17 09:00:30;;;;;;;7.33;6.37;;;;;;;6.43;79.25;100692.61;1587115;87;21084;-60
2023/04/17 09:02:59;;;;;;;7.95;6.35;;;;;;;6.49;80.26;100692.52;1618427;86;21026;-60
2023/04/17 09:05:40;;;;;;;8.53;6.80;;;;;;;6.76;80.32;100695.58;1606408;86;21030;-60
2023/04/17 09:08:11;;;;;;;9.10;6.37;;;;;;;6.86;79.92;100694.56;1581355;88;21155;-60
2023/04/17 09:10:40;;;;;;;7.85;5.92;;;;;;;6.91;79.61;100697.91;1621144;86;21352;-60
2023/04/17 09:13:10;;;;;;;8.45;6.10;;;;;;;7.03;79.90;100688.20;1605245;86;21088;-60
2023/04/17 09:15:37;;;;;;;9.78;6.83;;;;;;;7.20;79.87;100690.08;1624620;86;21041;-59
2023/04/17 09:18:05;;;;;;;9.15;6.37;;;;;;;7.27;79.05;100696.86;1618813;86;21079;-58
2023/04/17 09:20:34;;;;;;;8.25;5.67;;;;;;;7.19;78.92;100693.55;1614844;86;21045;-64
2023/04/17 09:23:04;;;;;;;6.58;4.95;;;;;;;7.11;78.79;100699.31;1611849;86;21484;-59
2023/04/17 09:25:36;;;;;;;6.47;5.30;;;;;;;7.05;78.57;100698.13;1609819;86;21543;-60
2023/04/17 09:28:12;;;;;;;6.03;5.22;;;;;;;7.15;79.02;100700.98;1583216;87;21569;-59
2023/04/17 09:30:43;;;;;;;5.87;5.28;;;;;;;7.08;78.50;100698.07;1612323;87;21563;-59
2023/04/17 09:33:10;;;;;;;7.28;5.40;;;;;;;7.10;78.55;100709.30;1594811;87;21609;-58
2023/04/17 09:35:37;;;;;;;6.65;5.83;;;;;;;7.05;78.71;100713.70;1580078;89;21015;-60
2023/04/17 09:38:06;;;;;;;7.03;5.92;;;;;;;7.03;78.29;100720.24;1579315;89;21054;-59
2023/04/17 09:40:40;;;;;;;8.90;5.85;;;;;;;6.89;78.25;100707.48;1608794;87;21004;-60
2023/04/17 09:43:12;;;;;;;6.85;5.50;;;;;;;6.91;78.82;100712.19;1606122;87;21086;-58
2023/04/17 09:45:40;;;;;;;7.35;5.30;;;;;;;7.13;78.62;100715.73;1612833;86;21493;-59
2023/04/17 09:48:14;;;;;;;6.72;5.12;;;;;;;7.16;78.29;100716.53;1606970;86;21021;-59
2023/04/17 09:50:40;;;;;;;6.60;5.90;;;;;;;7.08;77.39;100717.55;1617864;86;21092;-58
2023/04/17 09:53:09;;;;;;;8.55;5.53;;;;;;;7.07;77.87;100718.44;1621901;86;21070;-59
2023/04/17 09:55:37;;;;;;;6.12;4.50;;;;;;;7.02;77.79;100717.66;1602495;87;21022;-59
2023/04/17 09:58:06;;;;;;;6.85;5.70;;;;;;;7.23;78.70;100712.10;1582190;88;21125;-59
2023/04/17 10:00:32;;;;;;;7.10;5.80;;;;;;;7.34;77.90;100720.56;1590846;88;21046;-60
2023/04/17 10:03:00;;;;;;;6.70;5.20;;;;;;;7.45;77.79;100718.19;1579054;88;21059;-59
2023/04/17 10:05:30;;;;;;;6.25;5.55;;;;;;;7.63;78.31;100730.41;1605304;87;21097;-59
2023/04/17 10:08:01;;;;;;;6.90;5.85;;;;;;;7.62;77.38;100722.20;1594166;88;21058;-59
2023/04/17 10:10:29;;;;;;;6.70;5.62;;;;;;;7.45;76.79;100722.09;1604062;87;21049;-59
2023/04/17 10:12:59;;;;;;;8.30;6.20;;;;;;;7.59;78.09;100722.72;1597219;88;21103;-59
2023/04/17 10:15:28;;;;;;;8.18;6.00;;;;;;;7.73;77.21;100725.90;1610736;87;21539;-59
2023/04/17 10:17:56;;;;;;;7.65;6.03;;;;;;;7.92;77.65;100719.02;1593638;88;21053;-60
2023/04/17 10:20:27;;;;;;;7.47;6.15;;;;;;;8.05;77.24;100719.19;1608579;86;21118;-60
2023/04/17 10:22:54;;;;;;;7.85;6.00;;;;;;;8.20;77.58;100721.45;1597100;88;21596;-59
2023/04/17 10:25:23;;;;;;;8.85;6.03;;;;;;;8.40;77.26;100725.39;1602227;88;21472;-60
2023/04/17 10:27:52;;;;;;;6.90;6.12;;;;;;;8.20;76.40;100726.64;1621588;86;20995;-61
2023/04/17 10:30:23;;;;;;;9.83;5.92;;;;;;;8.01;76.42;100733.13;1586202;89;21041;-63
2023/04/17 10:33:09;;;;;;;10.25;6.12;;;;;;;7.75;76.27;100726.70;1645948;85;20953;-61
2023/04/17 10:35:36;;;;;;;6.92;6.15;;;;;;;7.66;76.61;100733.39;1650179;85;21021;-61
2023/04/17 10:38:05;;;;;;;8.17;5.80;;;;;;;7.48;76.24;100736.32;1655762;85;20998;-60
2023/04/17 10:40:38;;;;;;;7.47;6.65;;;;;;;7.52;77.03;100728.90;1642616;85;21754;-62
2023/04/17 10:43:12;;;;;;;8.65;6.53;;;;;;;7.63;76.62;100734.75;1599993;88;21559;-59
2023/04/17 10:46:09;;;;;;;9.03;5.80;;;;;;;7.67;76.66;100733.80;1578187;88;21233;-60
2023/04/17 10:48:41;;;;;;;9.40;5.87;;;;;;;7.92;77.35;100732.02;1602342;88;21112;-62
2023/04/17 10:51:26;;;;;;;6.12;5.28;;;;;;;8.37;77.21;100731.94;1619174;86;21067;-61
2023/04/17 10:54:09;;;;;;;7.33;5.50;;;;;;;8.68;76.83;100734.73;1595513;87;21022;-59
2023/04/17 10:56:45;;;;;;;5.53;4.80;;;;;;;8.94;76.56;100740.64;1628989;85;21133;-61
2023/04/17 10:59:15;;;;;;;4.55;4.10;;;;;;;9.03;76.28;100741.71;1578566;89;21024;-62
2023/04/17 11:01:52;;;;;;;7.45;4.95;;;;;;;9.05;75.47;100729.96;1579760;89;21607;-61
2023/04/17 11:04:26;;;;;;;7.62;4.25;;;;;;;8.85;75.04;100739.53;1579853;89;21099;-61
2023/04/17 11:06:54;;;;;;;8.28;5.33;;;;;;;9.01;76.04;100742.19;1580877;89;21068;-61
2023/04/17 11:09:23;;;;;;;4.83;4.17;;;;;;;9.05;75.38;100741.23;1583330;89;21055;-63
2023/04/17 11:11:50;;;;;;;7.72;5.17;;;;;;;9.08;75.92;100739.85;1579634;89;21024;-62
2023/04/17 11:14:20;;;;;;;5.20;3.95;;;;;;;9.30;75.86;100741.89;1581142;89;21131;-61
2023/04/17 11:16:51;;;;;;;8.60;4.75;;;;;;;9.11;74.34;100748.89;1580011;89;21073;-61
2023/04/17 11:19:29;;;;;;;3.85;3.42;;;;;;;9.09;75.15;100740.25;1578899;89;21166;-61
2023/04/17 11:21:52;;;;;;;5.70;4.42;;;;;;;9.24;74.89;100748.57;1575682;89;21084;-62
2023/04/17 11:24:24;;;;;;;4.50;3.95;;;;;;;9.07;74.55;100752.45;1576784;88;21036;-62
2023/04/17 11:26:58;;;;;;;6.40;4.50;;;;;;;8.87;74.32;100749.48;1577531;89;21083;-62
2023/04/17 11:29:26;;;;;;;5.50;4.70;;;;;;;8.88;74.94;100751.21;1596613;86;21151;-63
2023/04/17 11:31:54;;;;;;;;;;;;;;;8.98;74.70;100747.47;1645674;85;21134;-60
2023/04/17 11:34:26;;;;;;;3.55;3.10;;;;;;;9.12;74.37;100758.41;1643580;85;20105;-61
2023/04/17 11:36:58;;;;;;;5.60;4.62;;;;;;;9.46;75.03;100749.73;1646425;85;21028;-60
2023/04/17 11:40:30;;;;;;;4.28;3.83;;;;;;;9.83;74.14;100739.60;1861412;76;28017;-58